Akron, Indiana
Current Conditions -  °F | °C
As of 3:15 AM on Thursday 18 Dec 2014 (Local Time) from KRCR Reporting Station
Broken Clouds Broken Clouds  
Wind Chill: 21°   Ceiling: 2400
Heat Index: 28°   Visibility: 10mi
Dew Point: 23°   Wind: 7mph
Humidity: 80%   Direction: 300°WNW
Pressure: 30.28"   Gusts: NA
Location:  41.04°N, 86.03°W
Report Text: KRCR 180815Z AUTO 30006KT 10SM BKN024 M02/M05 A3028 RMK AO2
Loading
Personal Weather Stations






























Interactive Weather Map New forecast layout! Learn more

10-Day Weather Forecast

Advertisements
Track Severe Weather on mobile